createdAt,value
2022-09-07T00:00:15.931Z,54.8
2022-09-07T00:01:18.786Z,54.7
2022-09-07T00:02:22.482Z,54.9
2022-09-07T00:03:26.172Z,54.7
2022-09-07T00:04:30.364Z,54.9
2022-09-07T00:05:33.704Z,54.8
2022-09-07T00:06:36.504Z,54.9
2022-09-07T00:07:39.294Z,55.1
2022-09-07T00:08:42.174Z,55
2022-09-07T00:09:45.161Z,55.2
2022-09-07T00:10:48.613Z,55.3
2022-09-07T00:11:51.681Z,55.2
2022-09-07T00:12:54.646Z,55.2
2022-09-07T00:13:58.078Z,55.4
2022-09-07T00:15:00.681Z,55.2
2022-09-07T00:16:03.561Z,55.6
2022-09-07T00:17:06.664Z,55.6
2022-09-07T00:18:09.535Z,55.6
2022-09-07T00:19:12.526Z,55.5
2022-09-07T00:20:15.135Z,55.7
2022-09-07T00:21:18.165Z,55.9
2022-09-07T00:22:20.488Z,55.7
2022-09-07T00:23:23.266Z,55.7
2022-09-07T00:24:26.061Z,55.8
2022-09-07T00:25:33.143Z,55.9
2022-09-07T00:26:36.327Z,55.9
2022-09-07T00:27:39.111Z,55.8
2022-09-07T00:28:42.102Z,55.8
2022-09-07T00:29:45.248Z,55.7
2022-09-07T00:30:48.224Z,55.7
2022-09-07T00:31:51.792Z,55.6
2022-09-07T00:32:54.709Z,55.5
2022-09-07T00:33:57.412Z,55.6
2022-09-07T00:35:00.529Z,55.6
2022-09-07T00:36:03.389Z,55.6
2022-09-07T00:37:06.464Z,55.7
2022-09-07T00:38:09.290Z,55.6
2022-09-07T00:39:12.429Z,55.4
2022-09-07T00:40:15.221Z,55.5
2022-09-07T00:41:18.920Z,55.7
2022-09-07T00:42:22.934Z,55.7
2022-09-07T00:43:25.765Z,55.6
2022-09-07T00:44:28.835Z,55.5
2022-09-07T00:45:32.099Z,55.5
2022-09-07T00:46:35.378Z,55.7
2022-09-07T00:47:38.518Z,55.7
2022-09-07T00:48:41.394Z,55.6
2022-09-07T00:49:44.551Z,55.7
2022-09-07T00:50:47.439Z,55.9
2022-09-07T00:51:50.865Z,55.7
2022-09-07T00:52:53.968Z,55.7
2022-09-07T00:53:56.758Z,55.6
2022-09-07T00:54:59.625Z,55.6
2022-09-07T00:56:02.320Z,55.4
2022-09-07T00:57:05.183Z,55.5
2022-09-07T00:58:08.253Z,55.6
2022-09-07T00:59:10.860Z,55.6
2022-09-07T01:00:13.932Z,55.6
2022-09-07T01:01:17.111Z,55.7
2022-09-07T01:02:21.082Z,55.7
2022-09-07T01:03:24.289Z,55.7
2022-09-07T01:04:27.737Z,55.6
2022-09-07T01:05:30.882Z,55.7
2022-09-07T01:06:33.118Z,55.7
2022-09-07T01:07:35.976Z,55.7
2022-09-07T01:08:38.741Z,55.7
2022-09-07T01:09:41.881Z,55.6
2022-09-07T01:10:44.881Z,55.7
2022-09-07T01:11:47.883Z,55.6
2022-09-07T01:12:50.396Z,55.6
2022-09-07T01:13:52.635Z,55.6
2022-09-07T01:14:55.150Z,55.7
2022-09-07T01:15:58.524Z,55.9
2022-09-07T01:17:01.727Z,55.8
2022-09-07T01:18:04.882Z,55.7
2022-09-07T01:19:07.868Z,55.8
2022-09-07T01:20:11.291Z,55.7
2022-09-07T01:21:14.645Z,56
2022-09-07T01:22:17.514Z,56.1
2022-09-07T01:23:20.507Z,56.1
2022-09-07T01:24:23.579Z,56
2022-09-07T01:25:26.176Z,55.8
2022-09-07T01:26:29.242Z,55.7
2022-09-07T01:27:32.120Z,55.6
2022-09-07T01:28:34.429Z,55.8
2022-09-07T01:29:37.526Z,55.7
2022-09-07T01:30:40.614Z,55.5
2022-09-07T01:31:43.276Z,55.5
2022-09-07T01:32:46.185Z,55.4
2022-09-07T01:33:49.070Z,55.3
2022-09-07T01:34:52.423Z,55.3
2022-09-07T01:35:55.482Z,55.4
2022-09-07T01:36:57.792Z,55.9
2022-09-07T01:38:00.882Z,55.7
2022-09-07T01:39:03.394Z,55.5
2022-09-07T01:40:06.384Z,55.4
2022-09-07T01:41:09.424Z,55.2
2022-09-07T01:42:11.738Z,55.1
2022-09-07T01:43:14.820Z,55.2
2022-09-07T01:44:17.963Z,55.1
2022-09-07T01:45:20.926Z,55.1
2022-09-07T01:46:24.588Z,55
2022-09-07T01:47:27.552Z,54.9
2022-09-07T01:48:30.784Z,55
2022-09-07T01:49:34.013Z,54.8
2022-09-07T01:50:37.558Z,54.8
2022-09-07T01:51:40.069Z,55
2022-09-07T01:52:42.859Z,55.1
2022-09-07T01:53:45.743Z,55.3
2022-09-07T01:54:49.139Z,55.1
2022-09-07T01:55:52.297Z,55
2022-09-07T01:56:54.812Z,54.8
2022-09-07T01:57:57.981Z,54.9
2022-09-07T01:59:00.927Z,54.8
2022-09-07T02:00:03.708Z,54.8
2022-09-07T02:01:06.647Z,55
2022-09-07T02:02:09.737Z,54.9
2022-09-07T02:03:12.926Z,54.9
2022-09-07T02:04:15.850Z,54.9
2022-09-07T02:05:19.181Z,55
2022-09-07T02:06:21.827Z,54.9
2022-09-07T02:07:24.888Z,54.9
2022-09-07T02:08:27.864Z,54.9
2022-09-07T02:09:30.823Z,54.9
2022-09-07T02:10:33.685Z,54.6
2022-09-07T02:11:36.555Z,54.4
2022-09-07T02:12:39.616Z,54.4
2022-09-07T02:13:42.684Z,54.2
2022-09-07T02:14:53.482Z,54.2
2022-09-07T02:15:57.061Z,54.3
2022-09-07T02:16:59.833Z,54.3
2022-09-07T02:18:02.533Z,54.4
2022-09-07T02:19:05.595Z,54.5
2022-09-07T02:20:08.580Z,54.4
2022-09-07T02:21:11.730Z,54.6
2022-09-07T02:22:15.166Z,54.4
2022-09-07T02:23:18.444Z,54.4
2022-09-07T02:24:21.228Z,54.1
2022-09-07T02:25:24.301Z,54.1
2022-09-07T02:26:27.175Z,54.1
2022-09-07T02:27:30.047Z,53.9
2022-09-07T02:28:33.855Z,54
2022-09-07T02:29:36.719Z,54
2022-09-07T02:30:40.205Z,53.8
2022-09-07T02:31:43.348Z,53.8
2022-09-07T02:32:45.868Z,53.8
2022-09-07T02:33:49.321Z,53.8
2022-09-07T02:34:52.123Z,53.9
2022-09-07T02:35:54.641Z,53.9
2022-09-07T02:36:58.344Z,53.8
2022-09-07T02:38:01.499Z,53.8
2022-09-07T02:39:04.923Z,53.9
2022-09-07T02:40:08.104Z,53.8
2022-09-07T02:41:10.780Z,53.8
2022-09-07T02:42:14.132Z,53.6
2022-09-07T02:43:17.068Z,53.7
2022-09-07T02:44:19.929Z,53.4
2022-09-07T02:45:22.716Z,53.5
2022-09-07T02:46:26.407Z,53.5
2022-09-07T02:47:29.757Z,53.7
2022-09-07T02:48:32.750Z,53.7
2022-09-07T02:49:35.619Z,53.5
2022-09-07T02:50:38.961Z,53.6
2022-09-07T02:51:42.019Z,53.6
2022-09-07T02:52:44.623Z,53.6
2022-09-07T02:53:47.447Z,53.5
2022-09-07T02:54:50.588Z,53.5
2022-09-07T02:55:53.672Z,53.5
2022-09-07T02:56:56.817Z,53.3
2022-09-07T02:57:59.608Z,53.3
2022-09-07T02:59:02.390Z,53.5
2022-09-07T03:00:05.531Z,53.4
2022-09-07T03:01:09.372Z,53.4
2022-09-07T03:02:12.506Z,53.3
2022-09-07T03:03:15.794Z,53.2
2022-09-07T03:04:18.908Z,53.3
2022-09-07T03:05:21.425Z,53.1
2022-09-07T03:06:24.851Z,53.1
2022-09-07T03:07:27.841Z,53.1
2022-09-07T03:08:30.861Z,53.1
2022-09-07T03:09:34.304Z,53
2022-09-07T03:10:37.448Z,53
2022-09-07T03:11:40.624Z,53.1
2022-09-07T03:12:43.494Z,52.9
2022-09-07T03:13:46.902Z,52.9
2022-09-07T03:14:49.770Z,52.9
2022-09-07T03:15:57.442Z,53
2022-09-07T03:17:00.025Z,53.1
2022-09-07T03:18:03.745Z,53.1
2022-09-07T03:19:07.098Z,53
2022-09-07T03:20:10.259Z,53
2022-09-07T03:21:12.883Z,53.2
2022-09-07T03:22:15.786Z,53.1
2022-09-07T03:23:18.940Z,53.2
2022-09-07T03:24:22.173Z,53.2
2022-09-07T03:25:25.300Z,53.2
2022-09-07T03:26:28.106Z,53.3
2022-09-07T03:27:31.267Z,53.1
2022-09-07T03:28:33.699Z,53.1
2022-09-07T03:29:43.098Z,53.2
2022-09-07T03:30:46.461Z,53.3
2022-09-07T03:31:49.395Z,53.4
2022-09-07T03:32:52.380Z,53.3
2022-09-07T03:33:55.551Z,53.3
2022-09-07T03:34:59.014Z,53.4
2022-09-07T03:36:01.885Z,53.5
2022-09-07T03:37:04.965Z,53.5
2022-09-07T03:38:07.482Z,53.5
2022-09-07T03:39:11.169Z,53.6
2022-09-07T03:40:15.090Z,53.6
2022-09-07T03:41:18.323Z,53.6
2022-09-07T03:42:20.915Z,53.7
2022-09-07T03:43:24.181Z,53.7
2022-09-07T03:44:26.843Z,53.7
2022-09-07T03:45:29.708Z,53.8
2022-09-07T03:46:33.260Z,53.8
2022-09-07T03:47:36.980Z,54
2022-09-07T03:48:40.257Z,54
2022-09-07T03:49:43.801Z,54
2022-09-07T03:50:46.590Z,54.2
2022-09-07T03:51:49.187Z,54.1
2022-09-07T03:52:52.063Z,54.1
2022-09-07T03:53:55.300Z,54
2022-09-07T03:54:58.174Z,54.2
2022-09-07T03:56:01.250Z,54.1
2022-09-07T03:57:04.034Z,54
2022-09-07T03:58:06.539Z,54.1
2022-09-07T03:59:08.695Z,54
2022-09-07T04:00:11.771Z,54
2022-09-07T04:01:15.145Z,54
2022-09-07T04:02:18.934Z,54
2022-09-07T04:03:21.415Z,53.9
2022-09-07T04:04:24.637Z,54
2022-09-07T04:05:27.705Z,54.1
2022-09-07T04:06:30.309Z,54.1
2022-09-07T04:07:34.039Z,54.2
2022-09-07T04:08:37.369Z,54.3
2022-09-07T04:09:40.161Z,54.2
2022-09-07T04:10:43.323Z,54.2
2022-09-07T04:11:46.246Z,54.1
2022-09-07T04:12:49.675Z,54.4
2022-09-07T04:13:52.820Z,54.3
2022-09-07T04:14:55.883Z,54.2
2022-09-07T04:15:58.468Z,54.5
2022-09-07T04:17:01.925Z,54.3
2022-09-07T04:18:05.591Z,54.4
2022-09-07T04:19:08.739Z,54.6
2022-09-07T04:20:11.538Z,54.6
2022-09-07T04:21:14.503Z,54.4
2022-09-07T04:22:17.771Z,54.5
2022-09-07T04:23:21.079Z,54.6
2022-09-07T04:24:23.592Z,54.7
2022-09-07T04:25:26.298Z,54.7
2022-09-07T04:26:28.695Z,54.6
2022-09-07T04:27:31.855Z,54.7
2022-09-07T04:28:34.525Z,54.6
2022-09-07T04:29:37.398Z,54.6
2022-09-07T04:30:41.104Z,54.6
2022-09-07T04:31:44.468Z,54.6
2022-09-07T04:32:47.920Z,54.6
2022-09-07T04:33:50.805Z,54.8
2022-09-07T04:34:53.982Z,54.7
2022-09-07T04:35:56.584Z,54.7
2022-09-07T04:36:59.937Z,54.8
2022-09-07T04:38:02.892Z,54.5
2022-09-07T04:39:05.973Z,54.7
2022-09-07T04:40:09.665Z,54.8
2022-09-07T04:41:12.920Z,54.6
2022-09-07T04:42:16.563Z,54.7
2022-09-07T04:43:19.356Z,54.6
2022-09-07T04:44:22.801Z,54.7
2022-09-07T04:45:26.054Z,54.8
2022-09-07T04:46:29.437Z,54.8
2022-09-07T04:47:32.776Z,54.8
2022-09-07T04:48:35.360Z,54.8
2022-09-07T04:49:38.517Z,54.9
2022-09-07T04:50:41.305Z,54.9
2022-09-07T04:51:44.033Z,54.7
2022-09-07T04:52:47.494Z,54.7
2022-09-07T04:53:50.842Z,54.8
2022-09-07T04:54:53.909Z,54.7
2022-09-07T04:55:57.132Z,54.8
2022-09-07T04:56:59.998Z,54.9
2022-09-07T04:58:03.418Z,54.8
2022-09-07T04:59:06.218Z,54.8
2022-09-07T05:00:09.029Z,54.8
2022-09-07T05:01:12.367Z,54.9
2022-09-07T05:02:16.280Z,54.7
2022-09-07T05:03:19.704Z,54.6
2022-09-07T05:04:23.136Z,54.8
2022-09-07T05:05:26.316Z,54.6
2022-09-07T05:06:29.200Z,54.7
2022-09-07T05:07:31.717Z,54.9
2022-09-07T05:08:34.860Z,54.8
2022-09-07T05:09:37.661Z,54.8
2022-09-07T05:10:40.099Z,54.8
2022-09-07T05:11:43.172Z,54.8
2022-09-07T05:12:46.247Z,55
2022-09-07T05:13:49.666Z,55.1
2022-09-07T05:14:52.183Z,55
2022-09-07T05:15:55.306Z,55.1
2022-09-07T05:16:58.828Z,55.2
2022-09-07T05:18:02.519Z,55.3
2022-09-07T05:19:05.436Z,55.3
2022-09-07T05:20:08.313Z,55.3
2022-09-07T05:21:11.101Z,55.3
2022-09-07T05:22:13.694Z,55.4
2022-09-07T05:23:17.422Z,55.4
2022-09-07T05:24:20.411Z,55.3
2022-09-07T05:25:23.570Z,55.4
2022-09-07T05:26:26.585Z,55.4
2022-09-07T05:27:29.455Z,55.6
2022-09-07T05:28:33.653Z,55.5
2022-09-07T05:30:08.226Z,55.4
2022-09-07T05:32:16.222Z,55.5
2022-09-07T05:33:18.742Z,55.5
2022-09-07T05:34:36.899Z,55.4
2022-09-07T05:35:39.969Z,55.4
2022-09-07T05:36:43.493Z,55.3
2022-09-07T05:37:46.592Z,55.5
2022-09-07T05:38:49.468Z,55.4
2022-09-07T05:39:52.529Z,55.4
2022-09-07T05:40:55.291Z,55.4
2022-09-07T05:41:58.112Z,55.5
2022-09-07T05:43:01.203Z,55.6
2022-09-07T05:44:49.827Z,55.6
2022-09-07T05:45:53.182Z,55.7
2022-09-07T05:46:56.188Z,55.6
2022-09-07T05:47:58.701Z,55.7
2022-09-07T05:49:01.299Z,55.6
2022-09-07T05:50:05.012Z,55.5
2022-09-07T05:51:07.673Z,55.6
2022-09-07T05:52:10.735Z,55.7
2022-09-07T05:53:13.690Z,55.6
2022-09-07T05:54:16.760Z,55.7
2022-09-07T05:55:31.564Z,55.6
2022-09-07T05:56:34.712Z,55.6
2022-09-07T05:57:37.603Z,55.7
2022-09-07T05:58:40.275Z,55.6
2022-09-07T05:59:43.151Z,55.7
2022-09-07T06:00:46.365Z,55.7
2022-09-07T06:01:50.178Z,55.8
2022-09-07T06:02:53.864Z,55.9
2022-09-07T06:03:57.341Z,55.7
2022-09-07T06:05:00.495Z,55.8
2022-09-07T06:06:03.280Z,55.8
2022-09-07T06:07:24.041Z,55.9
2022-09-07T06:08:26.824Z,55.7
2022-09-07T06:09:31.652Z,55.6
2022-09-07T06:11:44.799Z,55.8
2022-09-07T06:12:50.463Z,55.9
2022-09-07T06:13:52.782Z,55.9
2022-09-07T06:14:55.567Z,55.8
2022-09-07T06:15:58.476Z,55.8
2022-09-07T06:17:01.239Z,55.7
2022-09-07T06:18:04.559Z,55.9
2022-09-07T06:19:07.094Z,55.9
2022-09-07T06:20:10.255Z,55.8
2022-09-07T06:21:13.328Z,56.1
2022-09-07T06:22:16.485Z,56.1
2022-09-07T06:23:19.092Z,56
2022-09-07T06:24:21.686Z,55.9
2022-09-07T06:25:24.833Z,56
2022-09-07T06:26:27.430Z,55.9
2022-09-07T06:27:31.078Z,55.9
2022-09-07T06:28:34.212Z,55.8
2022-09-07T06:29:37.276Z,55.8
2022-09-07T06:30:40.414Z,55.9
2022-09-07T06:32:42.774Z,55.7
2022-09-07T06:33:48.319Z,55.9
2022-09-07T06:34:51.384Z,55.9
2022-09-07T06:35:54.810Z,55.9
2022-09-07T06:36:57.395Z,55.9
2022-09-07T06:38:00.569Z,56.2
2022-09-07T06:39:03.354Z,56.5
2022-09-07T06:40:07.017Z,56.6
2022-09-07T06:42:10.226Z,56.4
2022-09-07T06:43:13.524Z,56.3
2022-09-07T06:44:16.320Z,56.6
2022-09-07T06:45:19.817Z,56.4
2022-09-07T06:47:08.185Z,56.7
2022-09-07T06:48:11.771Z,57
2022-09-07T06:49:14.595Z,56.7
2022-09-07T06:50:18.132Z,56.5
2022-09-07T06:51:20.927Z,56.6
2022-09-07T06:52:24.934Z,56.4
2022-09-07T06:53:34.707Z,56.3
2022-09-07T06:54:58.689Z,56.7
2022-09-07T06:56:04.262Z,56.7
2022-09-07T06:57:07.691Z,56.4
2022-09-07T06:58:10.295Z,55.8
2022-09-07T06:59:13.669Z,55.9
2022-09-07T07:00:17.400Z,56.1
2022-09-07T07:01:20.571Z,56
2022-09-07T07:02:23.346Z,55.9
2022-09-07T07:03:26.564Z,55.7
2022-09-07T07:04:30.182Z,56
2022-09-07T07:05:33.053Z,55.8
2022-09-07T07:06:35.269Z,55.5
2022-09-07T07:07:38.699Z,55.1
2022-09-07T07:08:41.832Z,55
2022-09-07T07:09:45.177Z,54.9
2022-09-07T07:10:47.769Z,54.7
2022-09-07T07:11:50.913Z,54.7
2022-09-07T07:12:53.583Z,55
2022-09-07T07:13:56.439Z,54.9
2022-09-07T07:14:58.611Z,54.8
2022-09-07T07:16:01.206Z,54.8
2022-09-07T07:17:04.511Z,54.9
2022-09-07T07:18:22.488Z,54.7
2022-09-07T07:19:25.273Z,54.6
2022-09-07T07:20:27.761Z,54.6
2022-09-07T07:22:45.919Z,54.5
2022-09-07T07:23:50.338Z,54.2
2022-09-07T07:24:53.409Z,54.4
2022-09-07T07:25:56.179Z,54.5
2022-09-07T07:26:59.314Z,54.9
2022-09-07T07:30:01.863Z,54.7
2022-09-07T07:31:13.668Z,55
2022-09-07T07:32:17.019Z,54.8
2022-09-07T07:33:19.877Z,54.9
2022-09-07T07:34:23.947Z,55
2022-09-07T07:35:28.209Z,54.9
2022-09-07T07:36:31.282Z,55.5
2022-09-07T07:37:34.080Z,55.7
2022-09-07T07:39:08.455Z,54.9
2022-09-07T07:43:03.211Z,55.3
2022-09-07T07:44:06.529Z,55.4
2022-09-07T07:45:55.529Z,55.2
2022-09-07T07:47:00.020Z,54.8
2022-09-07T07:48:03.157Z,55
2022-09-07T07:49:05.969Z,54.8
2022-09-07T07:50:39.442Z,54.7
2022-09-07T07:53:39.517Z,54.5
2022-09-07T07:54:56.852Z,54.4
2022-09-07T07:56:00.563Z,54.1
2022-09-07T07:57:03.210Z,54.1
2022-09-07T07:58:06.352Z,54.2
2022-09-07T07:59:16.804Z,54.2
2022-09-07T08:00:57.198Z,54.1
2022-09-07T08:02:02.474Z,54
2022-09-07T08:03:05.876Z,54.1
2022-09-07T08:04:08.506Z,54.1
2022-09-07T08:05:11.848Z,54.1
2022-09-07T08:06:15.480Z,54.1
2022-09-07T08:07:19.238Z,54.1
2022-09-07T08:08:22.295Z,54
2022-09-07T08:09:25.365Z,54.4
2022-09-07T08:10:27.880Z,54.6
2022-09-07T08:11:31.024Z,54.8
2022-09-07T08:12:33.879Z,54.7
2022-09-07T08:13:36.677Z,54.5
2022-09-07T08:14:40.107Z,54.6
2022-09-07T08:15:42.719Z,55
2022-09-07T08:16:46.331Z,55
2022-09-07T08:17:49.557Z,54.5
2022-09-07T08:18:52.155Z,54.5
2022-09-07T08:19:55.341Z,54.4
2022-09-07T08:20:58.689Z,54.5
2022-09-07T08:22:01.869Z,54.4
2022-09-07T08:23:05.720Z,54.3
2022-09-07T08:24:08.797Z,54.2
2022-09-07T08:25:11.882Z,54.1
2022-09-07T08:26:14.394Z,54
2022-09-07T08:27:17.113Z,54.1
2022-09-07T08:28:19.281Z,53.9
2022-09-07T08:29:22.074Z,53.9
2022-09-07T08:30:25.228Z,53.7
2022-09-07T08:31:28.332Z,53.8
2022-09-07T08:32:31.294Z,53.3
2022-09-07T08:33:34.356Z,53.4
2022-09-07T08:34:37.805Z,53.3
2022-09-07T08:35:41.082Z,53.3
2022-09-07T08:36:44.433Z,53
2022-09-07T08:37:48.135Z,52.9
2022-09-07T08:38:52.035Z,52.8
2022-09-07T08:39:55.690Z,52.8
2022-09-07T08:40:58.977Z,52.5
2022-09-07T08:42:01.879Z,52.9
2022-09-07T08:43:05.359Z,53.1
2022-09-07T08:44:07.939Z,52.9
2022-09-07T08:45:11.035Z,52.6
2022-09-07T08:46:14.676Z,52.6
2022-09-07T08:47:18.312Z,52.6
2022-09-07T08:48:21.390Z,52.6
2022-09-07T08:49:25.023Z,52.5
2022-09-07T08:50:28.391Z,52.4
2022-09-07T08:51:31.862Z,52.2
2022-09-07T08:52:35.140Z,52.2
2022-09-07T08:53:38.025Z,52.2
2022-09-07T08:54:42.083Z,52.3
2022-09-07T08:55:45.518Z,52.5
2022-09-07T08:57:22.217Z,52.3
2022-09-07T08:58:51.299Z,52.2
2022-09-07T08:59:54.885Z,52.1
2022-09-07T09:01:33.707Z,52.1
2022-09-07T09:06:13.213Z,52.2
2022-09-07T09:07:17.801Z,53.3
2022-09-07T09:08:21.569Z,53.1
2022-09-07T09:09:24.509Z,53.1
2022-09-07T09:10:28.261Z,52.7
2022-09-07T09:11:30.698Z,52.7
2022-09-07T09:12:39.021Z,52.5
2022-09-07T09:13:42.094Z,52.6
2022-09-07T09:14:45.233Z,52.7
2022-09-07T09:15:48.552Z,52.6
2022-09-07T09:16:52.145Z,52.5
2022-09-07T09:17:55.604Z,52.6
2022-09-07T09:18:58.718Z,52.8
2022-09-07T09:20:02.172Z,52.7
2022-09-07T09:21:05.317Z,52.8
2022-09-07T09:22:08.249Z,52.8
2022-09-07T09:23:11.977Z,52.9
2022-09-07T09:24:15.413Z,53.3
2022-09-07T09:25:18.587Z,53.5
2022-09-07T09:26:22.434Z,53.3
2022-09-07T09:27:25.885Z,53.2
2022-09-07T09:28:34.397Z,53.2
2022-09-07T09:29:38.935Z,53.2
2022-09-07T09:30:42.004Z,53.1
2022-09-07T09:31:44.942Z,53.4
2022-09-07T09:32:48.456Z,53.4
2022-09-07T09:33:51.957Z,53.1
2022-09-07T09:34:55.028Z,53
2022-09-07T09:35:58.203Z,53.3
2022-09-07T09:37:01.275Z,53.3
2022-09-07T09:38:04.696Z,53.5
2022-09-07T09:39:07.867Z,53.5
2022-09-07T09:40:11.139Z,53.2
2022-09-07T09:41:14.393Z,53.7
2022-09-07T09:42:18.257Z,54
2022-09-07T09:43:21.912Z,54.1
2022-09-07T09:44:24.983Z,54.1
2022-09-07T09:45:29.038Z,54.5
2022-09-07T09:46:33.529Z,54.8
2022-09-07T09:47:37.227Z,54.8
2022-09-07T09:48:40.467Z,54.7
2022-09-07T09:49:43.911Z,54.3
2022-09-07T09:52:34.955Z,54.6
2022-09-07T09:53:55.030Z,55.9
2022-09-07T09:55:36.430Z,55.7
2022-09-07T09:56:40.724Z,55.9
2022-09-07T10:00:00.479Z,56.6
2022-09-07T10:01:32.076Z,55.3
2022-09-07T10:04:56.621Z,55.6
2022-09-07T10:05:59.339Z,55.2
2022-09-07T10:07:02.811Z,55
2022-09-07T10:08:06.014Z,55
2022-09-07T10:09:09.187Z,56
2022-09-07T10:10:12.150Z,55.7
2022-09-07T10:11:15.671Z,55.3
2022-09-07T10:12:19.417Z,55.2
2022-09-07T10:13:23.476Z,55.4
2022-09-07T10:14:25.998Z,55.1
2022-09-07T10:15:28.989Z,54.7
2022-09-07T10:16:32.771Z,54.6
2022-09-07T10:17:36.310Z,54.6
2022-09-07T10:18:39.460Z,54.2
2022-09-07T10:19:42.538Z,54.2
2022-09-07T10:20:45.690Z,54.2
2022-09-07T10:21:48.874Z,54.2
2022-09-07T10:22:53.102Z,54.8
2022-09-07T10:23:55.969Z,55.6
2022-09-07T10:24:59.344Z,58
2022-09-07T10:26:02.410Z,59.5
2022-09-07T10:27:05.960Z,60.4
2022-09-07T10:28:09.412Z,62.4
2022-09-07T10:29:15.626Z,63.1
2022-09-07T10:30:19.738Z,64.3
2022-09-07T10:31:22.977Z,64.5
2022-09-07T10:32:26.053Z,66
2022-09-07T10:33:28.702Z,67.8
2022-09-07T10:34:31.700Z,68
2022-09-07T10:35:34.645Z,68.8
2022-09-07T10:36:37.357Z,69.5
2022-09-07T10:37:40.063Z,70.5
2022-09-07T10:38:43.427Z,70.4
2022-09-07T10:39:47.325Z,70.8
2022-09-07T10:40:50.861Z,71.2
2022-09-07T10:41:54.372Z,71.6
2022-09-07T10:43:27.493Z,72.3
2022-09-07T10:44:31.496Z,73.8
2022-09-07T10:45:34.829Z,73
2022-09-07T10:47:07.795Z,72.7
2022-09-07T10:48:11.674Z,72.6
2022-09-07T10:49:14.758Z,73
2022-09-07T10:50:25.225Z,73.4
2022-09-07T10:51:28.627Z,74.3
2022-09-07T10:52:31.804Z,73.5
2022-09-07T10:53:44.631Z,73.5
2022-09-07T10:54:49.786Z,73.4
2022-09-07T10:55:53.346Z,73.8
2022-09-07T10:56:56.163Z,74.6
2022-09-07T10:57:58.744Z,75
2022-09-07T10:59:05.643Z,75
2022-09-07T11:00:11.807Z,74.9
2022-09-07T11:01:15.986Z,74.2
2022-09-07T11:02:19.376Z,73.9
2022-09-07T11:03:29.983Z,73.8
2022-09-07T11:04:33.680Z,73.2
2022-09-07T11:05:39.896Z,74.5
2022-09-07T11:06:43.510Z,74.5
2022-09-07T11:07:46.450Z,74.1
2022-09-07T11:09:21.358Z,74.5
2022-09-07T11:10:24.701Z,74.5
2022-09-07T11:12:04.685Z,74.8
2022-09-07T11:13:08.025Z,73.7
2022-09-07T11:14:15.219Z,73.6
2022-09-07T11:15:19.337Z,74.1
2022-09-07T11:16:52.664Z,74.1
2022-09-07T11:17:56.511Z,74.1
2022-09-07T11:19:38.419Z,73.9
2022-09-07T11:20:41.729Z,74
2022-09-07T11:22:00.174Z,74.1
2022-09-07T11:23:03.512Z,74.1
2022-09-07T11:24:06.102Z,73.5
2022-09-07T11:25:39.453Z,73.6
2022-09-07T11:26:42.742Z,74.2
2022-09-07T11:27:45.648Z,73.2
2022-09-07T11:29:30.255Z,73.4
2022-09-07T11:30:35.750Z,73.6
2022-09-07T11:31:39.133Z,73.7
2022-09-07T11:32:42.460Z,73.5
2022-09-07T11:34:25.949Z,74.2
2022-09-07T11:35:29.071Z,74
2022-09-07T11:36:32.420Z,74.1
2022-09-07T11:37:35.899Z,73.6
2022-09-07T11:38:39.336Z,73.8
2022-09-07T11:39:42.630Z,73.9
2022-09-07T11:40:45.510Z,73.7
2022-09-07T11:41:49.239Z,73.7
2022-09-07T11:42:51.629Z,73.5
2022-09-07T11:43:55.136Z,74.6
2022-09-07T11:44:58.264Z,74.7
2022-09-07T11:46:02.754Z,74.5
2022-09-07T11:47:06.116Z,74.1
2022-09-07T11:48:09.346Z,73.6
2022-09-07T11:49:12.782Z,72
2022-09-07T11:50:16.241Z,71.9
2022-09-07T11:51:19.943Z,70.8
2022-09-07T11:52:23.679Z,70.5
2022-09-07T11:53:26.364Z,70.3
2022-09-07T11:54:29.711Z,71.6
2022-09-07T11:55:32.709Z,71.1
2022-09-07T11:56:38.512Z,70.3
2022-09-07T11:57:41.882Z,70.4
2022-09-07T11:58:44.956Z,70
2022-09-07T11:59:47.553Z,69
2022-09-07T12:00:50.754Z,68.6
2022-09-07T12:01:54.625Z,67.6
2022-09-07T12:03:01.773Z,66.8
2022-09-07T12:04:05.652Z,66.4
2022-09-07T12:05:09.123Z,66.2
2022-09-07T12:06:12.111Z,65.5
2022-09-07T12:07:14.902Z,65.8
2022-09-07T12:08:18.043Z,64.3
2022-09-07T12:09:21.699Z,64.4
2022-09-07T12:10:25.329Z,64
2022-09-07T12:11:28.194Z,63.3
2022-09-07T12:12:31.005Z,63.4
2022-09-07T12:13:34.729Z,61.4
2022-09-07T12:14:37.862Z,59.8
2022-09-07T12:15:41.240Z,59.5
2022-09-07T12:16:44.696Z,59.2
2022-09-07T12:17:48.891Z,59.8
2022-09-07T12:18:51.127Z,59.2
2022-09-07T12:19:53.713Z,57.4
2022-09-07T12:20:56.589Z,55.6
2022-09-07T12:22:00.435Z,54.8
2022-09-07T12:23:06.857Z,53.4
2022-09-07T12:24:09.947Z,51.1
2022-09-07T12:25:13.046Z,50.7
2022-09-07T12:26:15.572Z,51
2022-09-07T12:27:17.813Z,51.4
2022-09-07T12:28:23.351Z,53.6
2022-09-07T12:29:26.807Z,54.9
2022-09-07T12:30:29.977Z,56.7
2022-09-07T12:32:54.449Z,58
2022-09-07T12:34:01.859Z,59.6
2022-09-07T12:35:04.646Z,60.6
2022-09-07T12:36:07.242Z,61.4
2022-09-07T12:37:13.706Z,61
2022-09-07T12:38:16.658Z,60.6
2022-09-07T12:39:20.108Z,60.8
2022-09-07T12:40:23.196Z,59.7
2022-09-07T12:41:26.257Z,60.6
2022-09-07T12:42:38.955Z,60.9
2022-09-07T12:43:41.824Z,60.5
2022-09-07T12:44:44.540Z,60
2022-09-07T12:45:48.037Z,59.6
2022-09-07T12:46:51.027Z,58.5
2022-09-07T12:47:53.916Z,58.2
2022-09-07T12:48:57.170Z,58.4
2022-09-07T12:50:01.279Z,57.1
2022-09-07T12:51:05.206Z,57.1
2022-09-07T12:52:17.260Z,57
2022-09-07T12:53:20.371Z,57.5
2022-09-07T12:54:23.448Z,57.7
2022-09-07T12:55:31.766Z,59.5
2022-09-07T12:56:36.289Z,58.2
2022-09-07T12:57:39.666Z,57.2
2022-09-07T12:58:42.839Z,57.7
2022-09-07T12:59:47.171Z,58.6
2022-09-07T13:00:49.618Z,58.5
2022-09-07T13:01:52.925Z,57.7
2022-09-07T13:02:57.987Z,57.1
2022-09-07T13:04:01.900Z,55.9
2022-09-07T13:05:06.837Z,55.9
2022-09-07T13:06:11.176Z,56.4
2022-09-07T13:07:14.549Z,55.9
2022-09-07T13:08:17.724Z,56.4
2022-09-07T13:09:21.546Z,56.6
2022-09-07T13:10:25.274Z,56.3
2022-09-07T13:11:28.345Z,56.1
2022-09-07T13:13:00.492Z,55.8
2022-09-07T13:14:13.266Z,56.6
2022-09-07T13:15:25.346Z,56.4
2022-09-07T13:16:30.091Z,56.7
2022-09-07T13:17:34.694Z,56.6
2022-09-07T13:18:38.159Z,56.5
2022-09-07T13:19:42.645Z,56
2022-09-07T13:20:46.907Z,56.2
2022-09-07T13:21:50.094Z,56.8
2022-09-07T13:22:53.512Z,56.8
2022-09-07T13:23:57.899Z,56.5
2022-09-07T13:25:01.682Z,57.3
2022-09-07T13:26:05.022Z,56.3
2022-09-07T13:27:08.479Z,56.6
2022-09-07T13:28:12.180Z,56.3
2022-09-07T13:29:15.311Z,56.6
2022-09-07T13:30:18.243Z,57.5
2022-09-07T13:31:23.400Z,57.4
2022-09-07T13:33:09.967Z,57.8
2022-09-07T13:34:13.064Z,58.8
2022-09-07T13:35:16.325Z,58.8
2022-09-07T13:36:20.214Z,58.5
2022-09-07T13:37:23.563Z,58.9
2022-09-07T13:38:26.359Z,58.8
2022-09-07T13:39:29.976Z,58.2
2022-09-07T13:40:33.520Z,57.9
2022-09-07T13:41:36.969Z,57.8
2022-09-07T13:42:39.496Z,57.8
2022-09-07T13:43:42.089Z,58
2022-09-07T13:44:45.163Z,58.4
2022-09-07T13:45:49.423Z,57.7
2022-09-07T13:46:53.018Z,56.7
2022-09-07T13:47:56.636Z,55.8
2022-09-07T13:48:59.727Z,55.4
2022-09-07T13:50:03.177Z,54.9
2022-09-07T13:51:06.380Z,55.1
2022-09-07T13:52:10.540Z,54.6
2022-09-07T13:53:13.983Z,54.3
2022-09-07T13:54:17.219Z,55
2022-09-07T13:55:27.061Z,53.8
2022-09-07T13:56:30.707Z,54.5
2022-09-07T13:57:33.497Z,54.5
2022-09-07T13:58:36.655Z,53.9
2022-09-07T13:59:39.528Z,54.6
2022-09-07T14:00:42.865Z,54.9
2022-09-07T14:01:46.180Z,53.6
2022-09-07T14:02:57.278Z,52.8
2022-09-07T14:04:00.772Z,53
2022-09-07T14:05:04.201Z,53.4
2022-09-07T14:06:07.945Z,52.8
2022-09-07T14:07:11.391Z,52.3
2022-09-07T14:08:15.479Z,52.2
2022-09-07T14:09:18.555Z,51.4
2022-09-07T14:10:21.918Z,51.7
2022-09-07T14:11:24.585Z,51.9
2022-09-07T14:12:28.327Z,52.5
2022-09-07T14:13:31.561Z,51.9
2022-09-07T14:14:34.747Z,52.2
2022-09-07T14:15:38.177Z,52.1
2022-09-07T14:16:41.434Z,52.1
2022-09-07T14:17:44.979Z,51.8
2022-09-07T14:18:47.889Z,51.8
2022-09-07T14:19:51.035Z,51.3
2022-09-07T14:20:53.907Z,50.9
2022-09-07T14:21:57.378Z,50.1
2022-09-07T14:23:00.166Z,50.7
2022-09-07T14:24:04.303Z,50.9
2022-09-07T14:25:08.029Z,50.6
2022-09-07T14:26:20.053Z,50
2022-09-07T14:27:22.911Z,50.7
2022-09-07T14:28:26.310Z,50.9
2022-09-07T14:29:29.093Z,49.7
2022-09-07T14:30:32.420Z,51.1
2022-09-07T14:31:36.212Z,52.1
2022-09-07T14:32:39.565Z,51
2022-09-07T14:33:48.025Z,50.5
2022-09-07T14:34:51.008Z,50.8
2022-09-07T14:35:54.387Z,50.7
2022-09-07T14:36:57.889Z,50.5
2022-09-07T14:38:01.030Z,50.2
2022-09-07T14:39:07.039Z,50.8
2022-09-07T14:40:10.465Z,50.6
2022-09-07T14:41:13.270Z,50.2
2022-09-07T14:42:16.664Z,49.3
2022-09-07T14:43:20.079Z,49.7
2022-09-07T14:44:23.179Z,49.7
2022-09-07T14:45:25.889Z,49.6
2022-09-07T14:46:28.287Z,49.2
2022-09-07T14:47:31.498Z,48.5
2022-09-07T14:48:39.667Z,48.7